Weogufka, Alabama
Current Conditions -  °F | °C
As of 9:55 PM on Sunday 23 Nov 2014 (Local Time) from KSCD Reporting Station
Overcast Overcast  
Wind Chill: 62°   Ceiling: 1600
Heat Index: 62°   Visibility: 10mi
Dew Point: 60°   Wind: 10mph
Humidity: 93%   Direction: 210°SSW
Pressure: 29.71"   Gusts: 17mph
Location:  33.02°N, 86.31°W
Report Text: KSCD 240355Z AUTO 21009G15KT 10SM BKN016 OVC023 17/16 A2971 RMK AO2 T01680156
Loading
Personal Weather Stations






























Interactive Weather Map New forecast layout! Learn more

10-Day Weather Forecast

Advertisements
Track Severe Weather on mobile